Time,TemperatureF,DewpointF,PressureIn,WindDirection,WindDirectionDegrees,WindSpeedMPH,WindSpeedGustMPH,Humidity,HourlyPrecipIn,Conditions,Clouds,dailyrainin,SoftwareType,DateUTC
2013-08-02 00:00:00,63.4,57.8,30.01,NW,308,0.0,0.0,82,0.00,,,0.00,Wunderground v.1.15,2013-08-02 05:00:00,
2013-08-02 00:05:00,63.4,57.8,30.01,NW,308,0.0,0.0,82,0.00,,,0.00,Wunderground v.1.15,2013-08-02 05:05:00,
2013-08-02 00:15:00,63.5,57.9,30.01,NW,308,0.0,0.0,82,0.00,,,0.00,Wunderground v.1.15,2013-08-02 05:15:00,
2013-08-02 00:20:00,63.5,57.9,30.01,NW,308,0.0,0.0,82,0.00,,,0.00,Wunderground v.1.15,2013-08-02 05:20:00,
2013-08-02 00:30:00,63.4,57.8,30.01,NW,308,0.0,0.0,82,0.00,,,0.00,Wunderground v.1.15,2013-08-02 05:30:00,
2013-08-02 00:35:00,63.3,57.7,30.01,NW,308,0.0,0.0,82,0.00,,,0.00,Wunderground v.1.15,2013-08-02 05:35:00,
2013-08-02 00:40:00,63.3,58.0,30.01,NW,308,0.0,0.0,83,0.00,,,0.00,Wunderground v.1.15,2013-08-02 05:40:00,
2013-08-02 00:50:00,63.1,57.9,30.00,NW,308,0.0,0.0,83,0.00,,,0.00,Wunderground v.1.15,2013-08-02 05:50:00,
2013-08-02 01:00:00,62.9,57.7,30.00,NW,308,0.0,0.0,83,0.00,,,0.00,Wunderground v.1.15,2013-08-02 06:00:00,
2013-08-02 01:05:00,62.8,57.6,30.00,NW,308,0.0,0.0,83,0.00,,,0.00,Wunderground v.1.15,2013-08-02 06:05:00,
2013-08-02 01:15:00,62.6,57.4,30.00,NW,308,0.0,0.0,83,0.00,,,0.00,Wunderground v.1.15,2013-08-02 06:15:00,
2013-08-02 01:20:00,62.5,57.3,30.00,NW,308,0.0,0.0,83,0.00,,,0.00,Wunderground v.1.15,2013-08-02 06:20:00,
2013-08-02 01:30:00,62.3,57.1,30.00,NW,308,0.0,0.0,83,0.00,,,0.00,Wunderground v.1.15,2013-08-02 06:30:00,
2013-08-02 01:40:00,62.2,57.3,30.00,NW,308,0.0,0.0,84,0.00,,,0.00,Wunderground v.1.15,2013-08-02 06:40:00,
2013-08-02 01:45:00,62.1,57.2,29.99,NW,308,0.0,0.0,84,0.00,,,0.00,Wunderground v.1.15,2013-08-02 06:45:00,
2013-08-02 01:55:00,62.0,57.1,29.99,NW,308,0.0,0.0,84,0.00,,,0.00,Wunderground v.1.15,2013-08-02 06:55:00,
2013-08-02 02:00:00,61.9,57.0,29.99,NW,308,0.0,0.0,84,0.00,,,0.00,Wunderground v.1.15,2013-08-02 07:00:00,
2013-08-02 02:10:00,61.8,56.6,29.99,NW,308,0.0,0.0,83,0.00,,,0.00,Wunderground v.1.15,2013-08-02 07:10:00,
2013-08-02 02:15:00,61.7,56.8,29.99,NW,308,0.0,0.0,84,0.00,,,0.00,Wunderground v.1.15,2013-08-02 07:15:00,
2013-08-02 02:25:00,61.5,56.3,29.99,NW,308,0.0,0.0,83,0.00,,,0.00,Wunderground v.1.15,2013-08-02 07:25:00,
2013-08-02 02:30:00,61.4,56.2,29.99,NW,308,0.0,0.0,83,0.00,,,0.00,Wunderground v.1.15,2013-08-02 07:30:00,
2013-08-02 02:40:00,61.2,56.0,29.99,NW,308,1.0,2.0,83,0.00,,,0.00,Wunderground v.1.15,2013-08-02 07:40:00,
2013-08-02 02:45:00,61.2,56.0,29.99,NW,308,1.0,2.0,83,0.00,,,0.00,Wunderground v.1.15,2013-08-02 07:45:00,
2013-08-02 02:55:00,61.2,56.0,29.99,WNW,302,2.0,2.0,83,0.00,,,0.00,Wunderground v.1.15,2013-08-02 07:55:00,
2013-08-02 03:05:00,61.1,55.9,29.99,WNW,302,1.0,1.0,83,0.00,,,0.00,Wunderground v.1.15,2013-08-02 08:05:00,
2013-08-02 03:10:00,61.0,55.8,29.99,WNW,302,1.0,2.0,83,0.00,,,0.00,Wunderground v.1.15,2013-08-02 08:10:00,
2013-08-02 03:20:00,61.0,56.1,29.98,SW,230,2.0,2.0,84,0.00,,,0.00,Wunderground v.1.15,2013-08-02 08:20:00,
2013-08-02 03:25:00,61.0,56.1,29.98,SW,229,2.0,2.0,84,0.00,,,0.00,Wunderground v.1.15,2013-08-02 08:25:00,
2013-08-02 03:35:00,60.9,56.0,29.98,SW,229,1.0,1.0,84,0.00,,,0.00,Wunderground v.1.15,2013-08-02 08:35:00,
2013-08-02 03:40:00,60.9,56.4,29.98,SW,229,1.0,2.0,85,0.00,,,0.00,Wunderground v.1.15,2013-08-02 08:40:00,
2013-08-02 03:50:00,60.8,56.3,29.98,SW,227,2.0,2.0,85,0.00,,,0.00,Wunderground v.1.15,2013-08-02 08:50:00,
2013-08-02 03:55:00,60.9,56.4,29.98,SW,227,2.0,2.0,85,0.00,,,0.00,Wunderground v.1.15,2013-08-02 08:55:00,
2013-08-02 04:05:00,60.9,56.7,29.98,SW,226,1.0,1.0,86,0.00,,,0.00,Wunderground v.1.15,2013-08-02 09:05:00,
2013-08-02 04:10:00,61.0,56.8,29.98,SW,225,1.0,1.0,86,0.00,,,0.00,Wunderground v.1.15,2013-08-02 09:10:00,
2013-08-02 04:20:00,61.2,57.0,29.98,SW,221,1.0,1.0,86,0.00,,,0.00,Wunderground v.1.15,2013-08-02 09:20:00,
2013-08-02 04:25:00,61.4,56.8,29.98,SW,217,1.0,2.0,85,0.00,,,0.00,Wunderground v.1.15,2013-08-02 09:25:00,
2013-08-02 04:35:00,61.8,57.2,29.97,SSW,204,2.0,3.0,85,0.00,,,0.00,Wunderground v.1.15,2013-08-02 09:35:00,
2013-08-02 04:40:00,62.0,57.1,29.98,SSW,204,2.0,2.0,84,0.00,,,0.00,Wunderground v.1.15,2013-08-02 09:40:00,
2013-08-02 04:50:00,62.1,57.2,29.97,SSW,200,1.0,2.0,84,0.00,,,0.00,Wunderground v.1.15,2013-08-02 09:50:00,
2013-08-02 04:55:00,62.2,57.3,29.98,SSW,200,2.0,3.0,84,0.00,,,0.00,Wunderground v.1.15,2013-08-02 09:55:00,
2013-08-02 05:05:00,62.1,57.2,29.98,SSW,200,1.0,2.0,84,0.00,,,0.00,Wunderground v.1.15,2013-08-02 10:05:00,
2013-08-02 05:10:00,62.0,57.1,29.98,SSW,200,0.0,1.0,84,0.00,,,0.00,Wunderground v.1.15,2013-08-02 10:10:00,
2013-08-02 05:15:00,61.9,57.0,29.98,SSW,200,1.0,1.0,84,0.00,,,0.00,Wunderground v.1.15,2013-08-02 10:15:00,
2013-08-02 05:25:00,61.8,56.9,29.98,SSW,200,0.0,1.0,84,0.00,,,0.00,Wunderground v.1.15,2013-08-02 10:25:00,
2013-08-02 05:35:00,61.7,57.1,29.98,SSW,200,1.0,1.0,85,0.00,,,0.00,Wunderground v.1.15,2013-08-02 10:35:00,
2013-08-02 05:40:00,61.7,57.1,29.98,SSW,200,0.0,1.0,85,0.00,,,0.00,Wunderground v.1.15,2013-08-02 10:40:00,
2013-08-02 05:50:00,61.8,57.2,29.98,SSW,200,1.0,2.0,85,0.00,,,0.00,Wunderground v.1.15,2013-08-02 10:50:00,
2013-08-02 05:55:00,61.9,57.3,29.98,SSW,200,2.0,2.0,85,0.00,,,0.00,Wunderground v.1.15,2013-08-02 10:55:00,
2013-08-02 06:05:00,62.2,57.6,29.98,SSW,200,2.0,2.0,85,0.00,,,0.00,Wunderground v.1.15,2013-08-02 11:05:00,
2013-08-02 06:10:00,62.3,57.7,29.98,SSW,200,2.0,2.0,85,0.00,,,0.00,Wunderground v.1.15,2013-08-02 11:10:00,
2013-08-02 06:20:00,62.5,58.3,29.98,SSW,200,1.0,1.0,86,0.00,,,0.00,Wunderground v.1.15,2013-08-02 11:20:00,
2013-08-02 06:25:00,62.5,58.3,29.98,SSW,200,1.0,2.0,86,0.00,,,0.00,Wunderground v.1.15,2013-08-02 11:25:00,
2013-08-02 06:35:00,62.7,58.5,29.98,SSW,199,2.0,3.0,86,0.00,,,0.00,Wunderground v.1.15,2013-08-02 11:35:00,
2013-08-02 06:40:00,62.9,58.6,29.97,SSW,198,2.0,2.0,86,0.00,,,0.00,Wunderground v.1.15,2013-08-02 11:40:00,
2013-08-02 06:50:00,63.4,59.5,29.97,SSW,198,2.0,3.0,87,0.00,,,0.00,Wunderground v.1.15,2013-08-02 11:50:00,
2013-08-02 06:55:00,63.6,59.7,29.97,SSW,198,2.0,3.0,87,0.00,,,0.00,Wunderground v.1.15,2013-08-02 11:55:00,
2013-08-02 07:05:00,64.2,60.2,29.97,SSW,196,2.0,2.0,87,0.00,,,0.00,Wunderground v.1.15,2013-08-02 12:05:00,
2013-08-02 07:10:00,64.5,60.5,29.97,SSW,196,2.0,2.0,87,0.00,,,0.00,Wunderground v.1.15,2013-08-02 12:10:00,
2013-08-02 07:20:00,65.3,61.3,29.97,SSW,199,3.0,3.0,87,0.00,,,0.00,Wunderground v.1.15,2013-08-02 12:20:00,
2013-08-02 07:25:00,65.7,61.7,29.97,SSW,198,3.0,3.0,87,0.00,,,0.00,Wunderground v.1.15,2013-08-02 12:25:00,
2013-08-02 07:35:00,66.5,62.2,29.97,SSW,205,4.0,4.0,86,0.00,,,0.00,Wunderground v.1.15,2013-08-02 12:35:00,
2013-08-02 07:40:00,67.0,62.3,29.97,SSW,205,4.0,4.0,85,0.00,,,0.00,Wunderground v.1.15,2013-08-02 12:40:00,
2013-08-02 07:50:00,68.0,62.6,29.97,SSW,202,5.0,6.0,83,0.00,,,0.00,Wunderground v.1.15,2013-08-02 12:50:00,
2013-08-02 07:55:00,68.6,62.9,29.97,SSW,200,6.0,6.0,82,0.00,,,0.00,Wunderground v.1.15,2013-08-02 12:55:00,
2013-08-02 08:05:00,69.7,63.6,29.98,SSW,206,6.0,7.0,81,0.00,,,0.00,Wunderground v.1.15,2013-08-02 13:05:00,
2013-08-02 08:10:00,70.1,63.3,29.98,SSW,209,7.0,8.0,79,0.00,,,0.00,Wunderground v.1.15,2013-08-02 13:10:00,
2013-08-02 08:20:00,70.7,63.1,29.97,SW,215,8.0,10.0,77,0.00,,,0.00,Wunderground v.1.15,2013-08-02 13:20:00,
2013-08-02 08:25:00,70.9,63.0,29.97,SW,217,8.0,10.0,76,0.00,,,0.00,Wunderground v.1.15,2013-08-02 13:25:00,
2013-08-02 08:35:00,71.4,63.8,29.98,SW,219,8.0,8.0,77,0.00,,,0.00,Wunderground v.1.15,2013-08-02 13:35:00,
2013-08-02 08:40:00,71.7,63.7,29.98,SW,218,9.0,9.0,76,0.00,,,0.00,Wunderground v.1.15,2013-08-02 13:40:00,
2013-08-02 08:50:00,72.2,63.8,29.98,SSW,206,8.0,8.0,75,0.00,,,0.00,Wunderground v.1.15,2013-08-02 13:50:00,
2013-08-02 08:55:00,72.4,64.0,29.98,SSW,211,8.0,8.0,75,0.00,,,0.00,Wunderground v.1.15,2013-08-02 13:55:00,
2013-08-02 09:05:00,73.1,64.3,29.98,SW,224,8.0,8.0,74,0.00,,,0.00,Wunderground v.1.15,2013-08-02 14:05:00,
2013-08-02 09:10:00,73.6,65.2,29.98,SW,223,8.0,8.0,75,0.00,,,0.00,Wunderground v.1.15,2013-08-02 14:10:00,
2013-08-02 09:20:00,74.2,64.6,29.98,SW,223,9.0,9.0,72,0.00,,,0.00,Wunderground v.1.15,2013-08-02 14:20:00,
2013-08-02 09:25:00,74.5,64.9,29.98,SSW,209,10.0,13.0,72,0.00,,,0.00,Wunderground v.1.15,2013-08-02 14:25:00,
2013-08-02 09:35:00,75.2,65.6,29.98,SW,224,11.0,12.0,72,0.00,,,0.00,Wunderground v.1.15,2013-08-02 14:35:00,
2013-08-02 09:40:00,75.6,65.1,29.98,SW,217,10.0,10.0,70,0.00,,,0.00,Wunderground v.1.15,2013-08-02 14:40:00,
2013-08-02 09:45:00,76.1,66.8,29.98,SW,234,10.0,12.0,73,0.00,,,0.00,Wunderground v.1.15,2013-08-02 14:45:00,
2013-08-02 09:55:00,77.7,66.3,29.98,SW,223,9.0,14.0,68,0.00,,,0.00,Wunderground v.1.15,2013-08-02 14:55:00,
2013-08-02 10:00:00,78.5,67.5,29.98,SW,217,10.0,12.0,69,0.00,,,0.00,Wunderground v.1.15,2013-08-02 15:00:00,
2013-08-02 10:10:00,79.8,67.0,29.98,SSW,207,9.0,11.0,65,0.00,,,0.00,Wunderground v.1.15,2013-08-02 15:10:00,
2013-08-02 10:15:00,79.9,68.0,29.98,SW,215,9.0,11.0,67,0.00,,,0.00,Wunderground v.1.15,2013-08-02 15:15:00,
2013-08-02 10:25:00,79.9,67.5,29.98,SW,215,10.0,14.0,66,0.00,,,0.00,Wunderground v.1.15,2013-08-02 15:25:00,
2013-08-02 10:30:00,79.9,67.5,29.98,SSW,211,10.0,10.0,66,0.00,,,0.00,Wunderground v.1.15,2013-08-02 15:30:00,
2013-08-02 10:40:00,79.6,68.1,29.98,SW,225,10.0,10.0,68,0.00,,,0.00,Wunderground v.1.15,2013-08-02 15:40:00,
2013-08-02 10:45:00,79.5,67.6,29.98,SW,219,9.0,10.0,67,0.00,,,0.00,Wunderground v.1.15,2013-08-02 15:45:00,
2013-08-02 10:55:00,79.4,68.3,29.98,SSW,200,8.0,9.0,69,0.00,,,0.00,Wunderground v.1.15,2013-08-02 15:55:00,
2013-08-02 11:05:00,80.3,69.6,29.98,SSW,212,8.0,8.0,70,0.00,,,0.00,Wunderground v.1.15,2013-08-02 16:05:00,
2013-08-02 11:10:00,81.3,69.7,29.98,SW,215,8.0,8.0,68,0.00,,,0.00,Wunderground v.1.15,2013-08-02 16:10:00,
2013-08-02 11:20:00,83.0,69.1,29.98,SW,225,10.0,11.0,63,0.00,,,0.00,Wunderground v.1.15,2013-08-02 16:20:00,
2013-08-02 11:25:00,83.0,69.1,29.98,SW,229,12.0,12.0,63,0.00,,,0.00,Wunderground v.1.15,2013-08-02 16:25:00,
2013-08-02 11:35:00,82.5,70.0,29.98,SSW,213,10.0,11.0,66,0.00,,,0.00,Wunderground v.1.15,2013-08-02 16:35:00,
2013-08-02 11:40:00,82.6,68.7,29.98,SW,220,11.0,13.0,63,0.00,,,0.00,Wunderground v.1.15,2013-08-02 16:40:00,
2013-08-02 11:50:00,82.1,68.3,29.98,SSW,213,13.0,13.0,63,0.00,,,0.00,Wunderground v.1.15,2013-08-02 16:50:00,
2013-08-02 11:55:00,82.2,69.7,29.98,SW,231,12.0,14.0,66,0.00,,,0.00,Wunderground v.1.15,2013-08-02 16:55:00,
2013-08-02 12:05:00,82.7,69.7,29.97,SW,215,13.0,17.0,65,0.00,,,0.00,Wunderground v.1.15,2013-08-02 17:05:00,
2013-08-02 12:10:00,82.9,69.9,29.97,SW,221,12.0,13.0,65,0.00,,,0.00,Wunderground v.1.15,2013-08-02 17:10:00,
2013-08-02 12:20:00,83.5,69.1,29.97,SW,228,12.0,12.0,62,0.00,,,0.00,Wunderground v.1.15,2013-08-02 17:20:00,
2013-08-02 12:25:00,83.6,70.1,29.97,WSW,244,11.0,17.0,64,0.00,,,0.00,Wunderground v.1.15,2013-08-02 17:25:00,
2013-08-02 12:30:00,83.7,69.3,29.97,SW,214,11.0,16.0,62,0.00,,,0.00,Wunderground v.1.15,2013-08-02 17:30:00,
2013-08-02 12:40:00,83.4,69.9,29.97,SW,217,11.0,12.0,64,0.00,,,0.00,Wunderground v.1.15,2013-08-02 17:40:00,
2013-08-02 12:50:00,82.8,68.9,29.97,SW,221,12.0,20.0,63,0.00,,,0.00,Wunderground v.1.15,2013-08-02 17:50:00,
2013-08-02 12:55:00,82.6,70.1,29.97,SW,229,11.0,20.0,66,0.00,,,0.00,Wunderground v.1.15,2013-08-02 17:55:00,
2013-08-02 13:05:00,82.0,68.2,29.97,SW,228,12.0,12.0,63,0.00,,,0.00,Wunderground v.1.15,2013-08-02 18:05:00,
2013-08-02 13:10:00,81.8,68.9,29.97,WSW,245,11.0,12.0,65,0.00,,,0.00,Wunderground v.1.15,2013-08-02 18:10:00,
2013-08-02 13:15:00,81.8,68.9,29.97,SW,236,12.0,12.0,65,0.00,,,0.00,Wunderground v.1.15,2013-08-02 18:15:00,
2013-08-02 13:25:00,81.6,68.2,29.97,SW,230,12.0,13.0,64,0.00,,,0.00,Wunderground v.1.15,2013-08-02 18:25:00,
2013-08-02 13:35:00,80.8,68.4,29.97,WSW,242,12.0,14.0,66,0.00,,,0.00,Wunderground v.1.15,2013-08-02 18:35:00,
2013-08-02 13:40:00,80.4,68.0,29.97,SW,232,12.0,12.0,66,0.00,,,0.00,Wunderground v.1.15,2013-08-02 18:40:00,
2013-08-02 13:45:00,80.0,67.6,29.97,SW,219,13.0,13.0,66,0.00,,,0.00,Wunderground v.1.15,2013-08-02 18:45:00,
2013-08-02 13:55:00,79.7,67.8,29.97,SW,220,12.0,13.0,67,0.00,,,0.00,Wunderground v.1.15,2013-08-02 18:55:00,
2013-08-02 14:00:00,79.7,68.6,29.97,SW,217,11.0,11.0,69,0.00,,,0.00,Wunderground v.1.15,2013-08-02 19:00:00,
2013-08-02 14:10:00,79.6,68.5,29.97,WSW,238,10.0,10.0,69,0.00,,,0.00,Wunderground v.1.15,2013-08-02 19:10:00,
2013-08-02 14:20:00,79.2,68.6,29.97,SW,214,10.0,11.0,70,0.00,,,0.00,Wunderground v.1.15,2013-08-02 19:20:00,
2013-08-02 14:25:00,78.9,68.3,29.97,SSW,211,9.0,11.0,70,0.00,,,0.00,Wunderground v.1.15,2013-08-02 19:25:00,
2013-08-02 14:30:00,78.7,68.1,29.97,SW,219,10.0,10.0,70,0.00,,,0.00,Wunderground v.1.15,2013-08-02 19:30:00,
2013-08-02 14:40:00,78.4,68.2,29.97,SW,216,9.0,9.0,71,0.00,,,0.00,Wunderground v.1.15,2013-08-02 19:40:00,
2013-08-02 14:50:00,78.5,68.7,29.97,SSW,211,9.0,9.0,72,0.00,,,0.00,Wunderground v.1.15,2013-08-02 19:50:00,
2013-08-02 14:55:00,78.4,68.6,29.96,SW,215,9.0,12.0,72,0.00,,,0.00,Wunderground v.1.15,2013-08-02 19:55:00,
2013-08-02 15:05:00,78.1,68.3,29.97,SW,214,9.0,10.0,72,0.00,,,0.00,Wunderground v.1.15,2013-08-02 20:05:00,
2013-08-02 15:10:00,77.9,68.5,29.97,SW,223,9.0,10.0,73,0.00,,,0.00,Wunderground v.1.15,2013-08-02 20:10:00,
2013-08-02 15:20:00,77.6,68.3,29.96,SSW,211,8.0,8.0,73,0.00,,,0.00,Wunderground v.1.15,2013-08-02 20:20:00,
2013-08-02 15:25:00,77.4,68.1,29.96,SSW,212,7.0,8.0,73,0.00,,,0.00,Wunderground v.1.15,2013-08-02 20:25:00,
2013-08-02 15:35:00,77.2,68.3,29.96,SSW,211,7.0,7.0,74,0.00,,,0.00,Wunderground v.1.15,2013-08-02 20:35:00,
2013-08-02 15:40:00,77.1,68.6,29.96,SSW,202,7.0,8.0,75,0.00,,,0.00,Wunderground v.1.15,2013-08-02 20:40:00,
2013-08-02 15:50:00,76.8,68.7,29.95,SSW,204,7.0,7.0,76,0.00,,,0.00,Wunderground v.1.15,2013-08-02 20:50:00,
2013-08-02 15:55:00,76.8,68.7,29.95,SSW,209,7.0,7.0,76,0.00,,,0.00,Wunderground v.1.15,2013-08-02 20:55:00,
2013-08-02 16:05:00,77.0,69.2,29.95,SSW,209,6.0,7.0,77,0.00,,,0.00,Wunderground v.1.15,2013-08-02 21:05:00,
2013-08-02 16:15:00,77.5,69.7,29.95,SSW,211,6.0,7.0,77,0.00,,,0.00,Wunderground v.1.15,2013-08-02 21:15:00,
2013-08-02 16:20:00,77.7,69.9,29.95,SSW,207,5.0,5.0,77,0.00,,,0.00,Wunderground v.1.15,2013-08-02 21:20:00,
2013-08-02 16:25:00,77.9,70.1,29.95,SSE,166,5.0,5.0,77,0.00,,,0.00,Wunderground v.1.15,2013-08-02 21:25:00,
2013-08-02 16:35:00,78.2,70.4,29.95,SSW,201,5.0,6.0,77,0.00,,,0.00,Wunderground v.1.15,2013-08-02 21:35:00,
2013-08-02 16:40:00,78.2,70.4,29.95,SSW,209,6.0,7.0,77,0.00,,,0.00,Wunderground v.1.15,2013-08-02 21:40:00,
2013-08-02 16:50:00,78.3,70.1,29.94,SSW,208,6.0,8.0,76,0.00,,,0.00,Wunderground v.1.15,2013-08-02 21:50:00,
2013-08-02 17:00:00,78.2,69.6,29.94,SSW,211,8.0,8.0,75,0.00,,,0.00,Wunderground v.1.15,2013-08-02 22:00:00,
2013-08-02 17:05:00,78.2,70.0,29.94,SW,219,8.0,9.0,76,0.00,,,0.00,Wunderground v.1.15,2013-08-02 22:05:00,
2013-08-02 17:10:00,78.2,70.0,29.94,SSW,211,8.0,9.0,76,0.00,,,0.00,Wunderground v.1.15,2013-08-02 22:10:00,
2013-08-02 17:20:00,78.2,70.0,29.94,SW,220,7.0,7.0,76,0.00,,,0.00,Wunderground v.1.15,2013-08-02 22:20:00,
2013-08-02 17:30:00,78.3,69.7,29.94,SSW,213,7.0,9.0,75,0.00,,,0.00,Wunderground v.1.15,2013-08-02 22:30:00,
2013-08-02 17:35:00,78.2,69.6,29.94,SSW,209,7.0,9.0,75,0.00,,,0.00,Wunderground v.1.15,2013-08-02 22:35:00,
2013-08-02 17:40:00,78.3,69.7,29.94,SW,216,7.0,7.0,75,0.00,,,0.00,Wunderground v.1.15,2013-08-02 22:40:00,
2013-08-02 17:50:00,78.4,69.4,29.94,SSW,210,7.0,7.0,74,0.00,,,0.00,Wunderground v.1.15,2013-08-02 22:50:00,
2013-08-02 17:55:00,78.4,69.4,29.94,SW,221,8.0,9.0,74,0.00,,,0.00,Wunderground v.1.15,2013-08-02 22:55:00,
2013-08-02 18:05:00,78.3,69.3,29.94,SSW,209,8.0,9.0,74,0.00,,,0.00,Wunderground v.1.15,2013-08-02 23:05:00,
2013-08-02 18:15:00,78.2,69.2,29.94,South,183,6.0,8.0,74,0.00,,,0.00,Wunderground v.1.15,2013-08-02 23:15:00,
2013-08-02 18:20:00,78.3,69.3,29.94,SSW,211,7.0,9.0,74,0.00,,,0.00,Wunderground v.1.15,2013-08-02 23:20:00,
2013-08-02 18:30:00,78.5,69.5,29.94,SW,219,8.0,8.0,74,0.00,,,0.00,Wunderground v.1.15,2013-08-02 23:30:00,
2013-08-02 18:35:00,78.4,69.0,29.94,SW,219,8.0,14.0,73,0.00,,,0.00,Wunderground v.1.15,2013-08-02 23:35:00,
2013-08-02 18:45:00,78.5,69.1,29.94,SSW,213,9.0,11.0,73,0.00,,,0.00,Wunderground v.1.15,2013-08-02 23:45:00,
2013-08-02 18:50:00,78.5,69.1,29.94,SSW,209,9.0,9.0,73,0.00,,,0.00,Wunderground v.1.15,2013-08-02 23:50:00,
2013-08-02 19:00:00,78.3,69.3,29.94,SW,217,8.0,11.0,74,0.00,,,0.00,Wunderground v.1.15,2013-08-03 00:00:00,
2013-08-02 19:05:00,78.1,69.1,29.94,SSW,209,8.0,11.0,74,0.00,,,0.00,Wunderground v.1.15,2013-08-03 00:05:00,
2013-08-02 19:15:00,77.7,69.1,29.94,SW,216,7.0,11.0,75,0.00,,,0.00,Wunderground v.1.15,2013-08-03 00:15:00,
2013-08-02 19:20:00,77.4,68.9,29.94,SSW,213,7.0,7.0,75,0.00,,,0.00,Wunderground v.1.15,2013-08-03 00:20:00,
2013-08-02 19:30:00,77.0,68.9,29.94,SSW,211,8.0,8.0,76,0.00,,,0.00,Wunderground v.1.15,2013-08-03 00:30:00,
2013-08-02 19:35:00,76.7,68.6,29.94,SSW,207,7.0,8.0,76,0.00,,,0.00,Wunderground v.1.15,2013-08-03 00:35:00,
2013-08-02 19:40:00,76.6,68.8,29.94,SSW,207,6.0,6.0,77,0.00,,,0.00,Wunderground v.1.15,2013-08-03 00:40:00,
2013-08-02 19:50:00,76.1,68.7,29.94,SSW,200,5.0,6.0,78,0.00,,,0.00,Wunderground v.1.15,2013-08-03 00:50:00,
2013-08-02 19:55:00,75.8,68.4,29.94,SSW,200,4.0,6.0,78,0.00,,,0.00,Wunderground v.1.15,2013-08-03 00:55:00,
2013-08-02 20:05:00,75.3,68.3,29.94,SSW,205,4.0,6.0,79,0.00,,,0.00,Wunderground v.1.15,2013-08-03 01:05:00,
2013-08-02 20:10:00,75.1,68.5,29.94,SSW,207,5.0,6.0,80,0.00,,,0.00,Wunderground v.1.15,2013-08-03 01:10:00,
2013-08-02 20:15:00,74.8,68.2,29.94,SSW,204,5.0,6.0,80,0.00,,,0.00,Wunderground v.1.15,2013-08-03 01:15:00,
2013-08-02 20:25:00,74.3,68.1,29.94,SSW,205,6.0,11.0,81,0.00,,,0.00,Wunderground v.1.15,2013-08-03 01:25:00,
2013-08-02 20:35:00,74.0,68.2,29.94,SSW,204,7.0,7.0,82,0.00,,,0.00,Wunderground v.1.15,2013-08-03 01:35:00,
2013-08-02 20:40:00,73.8,68.0,29.94,SSW,202,6.0,8.0,82,0.00,,,0.00,Wunderground v.1.15,2013-08-03 01:40:00,
2013-08-02 20:50:00,73.6,68.1,29.94,SW,223,8.0,10.0,83,0.00,,,0.00,Wunderground v.1.15,2013-08-03 01:50:00,
2013-08-02 20:55:00,73.6,68.1,29.94,SSW,209,8.0,10.0,83,0.00,,,0.00,Wunderground v.1.15,2013-08-03 01:55:00,
2013-08-02 21:00:00,73.5,68.0,29.94,SSW,213,8.0,8.0,83,0.00,,,0.00,Wunderground v.1.15,2013-08-03 02:00:00,
2013-08-02 21:10:00,73.3,68.2,29.94,SW,225,9.0,9.0,84,0.00,,,0.00,Wunderground v.1.15,2013-08-03 02:10:00,
2013-08-02 21:15:00,73.2,68.1,29.94,SW,218,8.0,9.0,84,0.00,,,0.00,Wunderground v.1.15,2013-08-03 02:15:00,
2013-08-02 21:25:00,72.9,67.8,29.94,SW,223,9.0,12.0,84,0.00,,,0.00,Wunderground v.1.15,2013-08-03 02:25:00,
2013-08-02 21:30:00,72.7,67.6,29.94,SW,215,9.0,12.0,84,0.00,,,0.00,Wunderground v.1.15,2013-08-03 02:30:00,
2013-08-02 21:40:00,72.5,67.4,29.96,SW,217,9.0,10.0,84,0.00,,,0.00,Wunderground v.1.15,2013-08-03 02:40:00,
2013-08-02 21:45:00,72.4,67.3,29.96,SW,222,8.0,8.0,84,0.00,,,0.00,Wunderground v.1.15,2013-08-03 02:45:00,
2013-08-02 21:55:00,72.1,67.3,29.97,SW,229,7.0,8.0,85,0.00,,,0.00,Wunderground v.1.15,2013-08-03 02:55:00,
2013-08-02 22:00:00,72.0,67.2,29.98,SW,230,7.0,7.0,85,0.00,,,0.00,Wunderground v.1.15,2013-08-03 03:00:00,
2013-08-02 22:10:00,71.9,67.1,29.98,SW,226,5.0,7.0,85,0.00,,,0.00,Wunderground v.1.15,2013-08-03 03:10:00,
2013-08-02 22:15:00,71.9,67.5,29.98,SW,225,5.0,7.0,86,0.00,,,0.00,Wunderground v.1.15,2013-08-03 03:15:00,
2013-08-02 22:25:00,71.9,67.5,29.98,SW,229,5.0,5.0,86,0.00,,,0.00,Wunderground v.1.15,2013-08-03 03:25:00,
2013-08-02 22:30:00,71.8,67.4,29.98,SW,230,5.0,5.0,86,0.00,,,0.00,Wunderground v.1.15,2013-08-03 03:30:00,
2013-08-02 22:35:00,71.9,67.5,29.97,SW,229,5.0,5.0,86,0.00,,,0.00,Wunderground v.1.15,2013-08-03 03:35:00,
2013-08-02 22:45:00,71.9,67.5,29.97,SW,226,6.0,9.0,86,0.00,,,0.00,Wunderground v.1.15,2013-08-03 03:45:00,
2013-08-02 22:50:00,71.9,67.5,29.97,SW,231,6.0,6.0,86,0.00,,,0.00,Wunderground v.1.15,2013-08-03 03:50:00,
2013-08-02 23:00:00,71.9,67.5,29.97,SW,227,6.0,6.0,86,0.00,,,0.00,Wunderground v.1.15,2013-08-03 04:00:00,
2013-08-02 23:05:00,71.9,67.5,29.97,SW,236,6.0,6.0,86,0.00,,,0.00,Wunderground v.1.15,2013-08-03 04:05:00,
2013-08-02 23:10:00,71.9,67.5,29.97,WSW,240,5.0,5.0,86,0.00,,,0.00,Wunderground v.1.15,2013-08-03 04:10:00,
2013-08-02 23:15:00,71.9,67.8,29.97,WSW,243,5.0,7.0,87,0.00,,,0.00,Wunderground v.1.15,2013-08-03 04:15:00,
2013-08-02 23:20:00,71.8,67.7,29.97,WSW,241,5.0,5.0,87,0.00,,,0.00,Wunderground v.1.15,2013-08-03 04:20:00,
2013-08-02 23:25:00,71.8,67.7,29.97,WSW,242,4.0,5.0,87,0.00,,,0.00,Wunderground v.1.15,2013-08-03 04:25:00,
2013-08-02 23:35:00,71.6,67.9,29.97,WSW,240,4.0,6.0,88,0.00,,,0.01,Wunderground v.1.15,2013-08-03 04:35:00,
2013-08-02 23:40:00,71.6,67.9,29.97,WSW,239,5.0,5.0,88,0.00,,,0.01,Wunderground v.1.15,2013-08-03 04:40:00,
2013-08-02 23:50:00,71.4,67.7,29.97,WSW,239,5.0,5.0,88,0.00,,,0.01,Wunderground v.1.15,2013-08-03 04:50:00,
2013-08-02 23:55:00,71.4,67.7,29.97,WSW,239,5.0,5.0,88,0.00,,,0.01,Wunderground v.1.15,2013-08-03 04:55:00,